sensor_id;sensor_type;location;lat;lon;timestamp;P1;durP1;ratioP1;P2;durP2;ratioP2
68192;SDS011;55012;47.562;18.414;2023-02-28T00:00:16;17.63;;;7.82;;
68192;SDS011;55012;47.562;18.414;2023-02-28T00:02:42;18.15;;;8.15;;
68192;SDS011;55012;47.562;18.414;2023-02-28T00:05:10;19.75;;;7.70;;
68192;SDS011;55012;47.562;18.414;2023-02-28T00:07:36;16.67;;;7.22;;
68192;SDS011;55012;47.562;18.414;2023-02-28T00:10:03;17.88;;;7.45;;
68192;SDS011;55012;47.562;18.414;2023-02-28T00:12:33;14.95;;;6.95;;
68192;SDS011;55012;47.562;18.414;2023-02-28T00:14:59;14.02;;;7.22;;
68192;SDS011;55012;47.562;18.414;2023-02-28T00:17:25;16.63;;;7.40;;
68192;SDS011;55012;47.562;18.414;2023-02-28T00:19:50;17.02;;;7.53;;
68192;SDS011;55012;47.562;18.414;2023-02-28T00:22:19;14.95;;;6.90;;
68192;SDS011;55012;47.562;18.414;2023-02-28T00:24:46;17.60;;;6.88;;
68192;SDS011;55012;47.562;18.414;2023-02-28T00:27:12;16.20;;;7.63;;
68192;SDS011;55012;47.562;18.414;2023-02-28T00:29:38;17.48;;;8.07;;
68192;SDS011;55012;47.562;18.414;2023-02-28T00:32:04;15.77;;;6.90;;
68192;SDS011;55012;47.562;18.414;2023-02-28T00:34:30;16.65;;;7.82;;
68192;SDS011;55012;47.562;18.414;2023-02-28T00:36:56;16.10;;;7.60;;
68192;SDS011;55012;47.562;18.414;2023-02-28T00:39:21;18.63;;;7.65;;
68192;SDS011;55012;47.562;18.414;2023-02-28T00:41:47;15.80;;;7.47;;
68192;SDS011;55012;47.562;18.414;2023-02-28T00:44:12;18.85;;;6.95;;
68192;SDS011;55012;47.562;18.414;2023-02-28T00:46:38;16.05;;;7.35;;
68192;SDS011;55012;47.562;18.414;2023-02-28T00:49:03;14.85;;;7.07;;
68192;SDS011;55012;47.562;18.414;2023-02-28T00:51:29;15.38;;;7.18;;
68192;SDS011;55012;47.562;18.414;2023-02-28T00:53:54;18.13;;;7.72;;
68192;SDS011;55012;47.562;18.414;2023-02-28T00:56:20;16.08;;;7.20;;
68192;SDS011;55012;47.562;18.414;2023-02-28T00:58:45;15.70;;;7.47;;
68192;SDS011;55012;47.562;18.414;2023-02-28T01:01:10;17.45;;;7.70;;
68192;SDS011;55012;47.562;18.414;2023-02-28T01:03:36;17.17;;;8.05;;
68192;SDS011;55012;47.562;18.414;2023-02-28T01:06:01;15.57;;;7.22;;
68192;SDS011;55012;47.562;18.414;2023-02-28T01:08:27;16.10;;;7.28;;
68192;SDS011;55012;47.562;18.414;2023-02-28T01:10:53;16.73;;;6.93;;
68192;SDS011;55012;47.562;18.414;2023-02-28T01:13:18;17.77;;;7.53;;
68192;SDS011;55012;47.562;18.414;2023-02-28T01:15:51;18.50;;;7.68;;
68192;SDS011;55012;47.562;18.414;2023-02-28T01:20:45;15.60;;;6.57;;
68192;SDS011;55012;47.562;18.414;2023-02-28T01:23:11;17.10;;;7.22;;
68192;SDS011;55012;47.562;18.414;2023-02-28T01:25:37;17.65;;;7.43;;
68192;SDS011;55012;47.562;18.414;2023-02-28T01:28:03;13.43;;;7.13;;
68192;SDS011;55012;47.562;18.414;2023-02-28T01:30:28;16.20;;;7.38;;
68192;SDS011;55012;47.562;18.414;2023-02-28T01:32:55;17.73;;;7.78;;
68192;SDS011;55012;47.562;18.414;2023-02-28T01:35:20;14.88;;;7.22;;
68192;SDS011;55012;47.562;18.414;2023-02-28T01:37:46;14.70;;;7.05;;
68192;SDS011;55012;47.562;18.414;2023-02-28T01:40:11;18.55;;;8.40;;
68192;SDS011;55012;47.562;18.414;2023-02-28T01:42:37;15.45;;;7.03;;
68192;SDS011;55012;47.562;18.414;2023-02-28T01:45:22;19.75;;;7.70;;
68192;SDS011;55012;47.562;18.414;2023-02-28T01:47:52;15.40;;;7.18;;
68192;SDS011;55012;47.562;18.414;2023-02-28T01:50:31;18.50;;;7.50;;
68192;SDS011;55012;47.562;18.414;2023-02-28T01:53:04;16.23;;;7.13;;
68192;SDS011;55012;47.562;18.414;2023-02-28T01:55:32;13.55;;;7.00;;
68192;SDS011;55012;47.562;18.414;2023-02-28T01:57:59;15.30;;;6.82;;
68192;SDS011;55012;47.562;18.414;2023-02-28T02:00:27;15.75;;;7.10;;
68192;SDS011;55012;47.562;18.414;2023-02-28T02:03:05;15.80;;;7.10;;
68192;SDS011;55012;47.562;18.414;2023-02-28T02:05:34;15.13;;;6.45;;
68192;SDS011;55012;47.562;18.414;2023-02-28T02:08:03;15.50;;;7.03;;
68192;SDS011;55012;47.562;18.414;2023-02-28T02:13:37;18.13;;;7.03;;
68192;SDS011;55012;47.562;18.414;2023-02-28T02:16:21;14.60;;;7.00;;
68192;SDS011;55012;47.562;18.414;2023-02-28T02:21:56;15.02;;;6.90;;
68192;SDS011;55012;47.562;18.414;2023-02-28T02:27:48;14.60;;;6.50;;
68192;SDS011;55012;47.562;18.414;2023-02-28T02:38:51;14.52;;;6.88;;
68192;SDS011;55012;47.562;18.414;2023-02-28T02:46:32;15.27;;;6.78;;
68192;SDS011;55012;47.562;18.414;2023-02-28T02:49:00;16.27;;;7.78;;
68192;SDS011;55012;47.562;18.414;2023-02-28T02:51:30;18.15;;;7.72;;
68192;SDS011;55012;47.562;18.414;2023-02-28T02:54:00;16.55;;;7.18;;
68192;SDS011;55012;47.562;18.414;2023-02-28T02:56:31;17.30;;;7.70;;
68192;SDS011;55012;47.562;18.414;2023-02-28T02:59:00;17.67;;;7.50;;
68192;SDS011;55012;47.562;18.414;2023-02-28T03:01:32;17.15;;;6.68;;
68192;SDS011;55012;47.562;18.414;2023-02-28T03:04:04;15.73;;;7.38;;
68192;SDS011;55012;47.562;18.414;2023-02-28T03:06:36;16.05;;;7.10;;
68192;SDS011;55012;47.562;18.414;2023-02-28T03:09:01;14.85;;;7.95;;
68192;SDS011;55012;47.562;18.414;2023-02-28T03:11:28;17.88;;;8.15;;
68192;SDS011;55012;47.562;18.414;2023-02-28T03:27:26;17.00;;;7.38;;
68192;SDS011;55012;47.562;18.414;2023-02-28T03:30:14;15.95;;;7.25;;
68192;SDS011;55012;47.562;18.414;2023-02-28T03:32:54;15.60;;;7.50;;
68192;SDS011;55012;47.562;18.414;2023-02-28T03:35:24;17.88;;;8.32;;
68192;SDS011;55012;47.562;18.414;2023-02-28T03:38:04;16.60;;;7.63;;
68192;SDS011;55012;47.562;18.414;2023-02-28T03:40:39;16.00;;;7.20;;
68192;SDS011;55012;47.562;18.414;2023-02-28T03:43:12;14.73;;;7.40;;
68192;SDS011;55012;47.562;18.414;2023-02-28T03:45:43;15.70;;;7.60;;
68192;SDS011;55012;47.562;18.414;2023-02-28T03:50:58;15.43;;;7.70;;
68192;SDS011;55012;47.562;18.414;2023-02-28T03:53:33;19.02;;;8.10;;
68192;SDS011;55012;47.562;18.414;2023-02-28T04:01:16;16.67;;;7.88;;
68192;SDS011;55012;47.562;18.414;2023-02-28T04:03:46;18.80;;;8.07;;
68192;SDS011;55012;47.562;18.414;2023-02-28T04:06:14;23.13;;;8.68;;
68192;SDS011;55012;47.562;18.414;2023-02-28T04:08:44;21.73;;;9.07;;
68192;SDS011;55012;47.562;18.414;2023-02-28T04:11:23;19.88;;;8.55;;
68192;SDS011;55012;47.562;18.414;2023-02-28T04:13:56;18.25;;;7.95;;
68192;SDS011;55012;47.562;18.414;2023-02-28T04:16:22;16.38;;;7.72;;
68192;SDS011;55012;47.562;18.414;2023-02-28T04:18:47;16.02;;;7.78;;
68192;SDS011;55012;47.562;18.414;2023-02-28T04:21:13;18.77;;;7.80;;
68192;SDS011;55012;47.562;18.414;2023-02-28T04:23:38;15.73;;;7.57;;
68192;SDS011;55012;47.562;18.414;2023-02-28T04:26:04;17.45;;;7.60;;
68192;SDS011;55012;47.562;18.414;2023-02-28T04:28:31;15.68;;;7.55;;
68192;SDS011;55012;47.562;18.414;2023-02-28T04:30:57;15.68;;;7.22;;
68192;SDS011;55012;47.562;18.414;2023-02-28T04:33:27;16.05;;;7.20;;
68192;SDS011;55012;47.562;18.414;2023-02-28T04:36:06;16.60;;;7.30;;
68192;SDS011;55012;47.562;18.414;2023-02-28T04:38:37;14.38;;;6.85;;
68192;SDS011;55012;47.562;18.414;2023-02-28T04:41:03;23.13;;;7.45;;
68192;SDS011;55012;47.562;18.414;2023-02-28T04:43:30;16.83;;;7.63;;
68192;SDS011;55012;47.562;18.414;2023-02-28T04:45:56;14.85;;;7.28;;
68192;SDS011;55012;47.562;18.414;2023-02-28T04:48:24;20.25;;;8.30;;
68192;SDS011;55012;47.562;18.414;2023-02-28T04:50:51;19.10;;;7.82;;
68192;SDS011;55012;47.562;18.414;2023-02-28T04:53:17;17.40;;;7.57;;
68192;SDS011;55012;47.562;18.414;2023-02-28T04:55:42;15.35;;;7.22;;
68192;SDS011;55012;47.562;18.414;2023-02-28T04:58:08;16.58;;;7.75;;
68192;SDS011;55012;47.562;18.414;2023-02-28T05:00:33;15.23;;;7.20;;
68192;SDS011;55012;47.562;18.414;2023-02-28T05:02:59;17.35;;;8.35;;
68192;SDS011;55012;47.562;18.414;2023-02-28T05:05:24;18.50;;;7.53;;
68192;SDS011;55012;47.562;18.414;2023-02-28T05:07:50;17.58;;;7.82;;
68192;SDS011;55012;47.562;18.414;2023-02-28T05:10:15;16.52;;;7.65;;
68192;SDS011;55012;47.562;18.414;2023-02-28T05:12:41;20.08;;;8.23;;
68192;SDS011;55012;47.562;18.414;2023-02-28T05:15:07;20.63;;;7.75;;
68192;SDS011;55012;47.562;18.414;2023-02-28T05:17:37;16.42;;;7.50;;
68192;SDS011;55012;47.562;18.414;2023-02-28T05:20:03;16.98;;;7.28;;
68192;SDS011;55012;47.562;18.414;2023-02-28T05:22:29;18.73;;;7.85;;
68192;SDS011;55012;47.562;18.414;2023-02-28T05:24:55;18.05;;;8.23;;
68192;SDS011;55012;47.562;18.414;2023-02-28T05:27:21;17.95;;;8.00;;
68192;SDS011;55012;47.562;18.414;2023-02-28T05:29:46;18.60;;;8.45;;
68192;SDS011;55012;47.562;18.414;2023-02-28T05:32:12;18.95;;;8.00;;
68192;SDS011;55012;47.562;18.414;2023-02-28T05:34:38;18.40;;;8.70;;
68192;SDS011;55012;47.562;18.414;2023-02-28T05:37:04;16.65;;;8.25;;
68192;SDS011;55012;47.562;18.414;2023-02-28T05:39:31;14.63;;;7.53;;
68192;SDS011;55012;47.562;18.414;2023-02-28T05:41:56;18.77;;;7.93;;
68192;SDS011;55012;47.562;18.414;2023-02-28T05:44:22;20.08;;;8.48;;
68192;SDS011;55012;47.562;18.414;2023-02-28T05:46:47;16.30;;;7.72;;
68192;SDS011;55012;47.562;18.414;2023-02-28T05:49:13;20.05;;;8.35;;
68192;SDS011;55012;47.562;18.414;2023-02-28T05:51:38;18.60;;;8.52;;
68192;SDS011;55012;47.562;18.414;2023-02-28T05:54:05;20.92;;;8.82;;
68192;SDS011;55012;47.562;18.414;2023-02-28T05:56:30;21.92;;;9.73;;
68192;SDS011;55012;47.562;18.414;2023-02-28T05:58:57;20.17;;;8.70;;
68192;SDS011;55012;47.562;18.414;2023-02-28T06:01:36;21.02;;;8.32;;
68192;SDS011;55012;47.562;18.414;2023-02-28T06:04:04;27.40;;;9.75;;
68192;SDS011;55012;47.562;18.414;2023-02-28T06:06:31;18.17;;;9.10;;
68192;SDS011;55012;47.562;18.414;2023-02-28T06:08:59;23.25;;;9.50;;
68192;SDS011;55012;47.562;18.414;2023-02-28T06:11:25;20.40;;;9.50;;
68192;SDS011;55012;47.562;18.414;2023-02-28T06:13:55;25.17;;;11.27;;
68192;SDS011;55012;47.562;18.414;2023-02-28T06:16:22;51.80;;;19.88;;
68192;SDS011;55012;47.562;18.414;2023-02-28T06:18:48;32.28;;;14.13;;
68192;SDS011;55012;47.562;18.414;2023-02-28T06:21:14;33.25;;;14.65;;
68192;SDS011;55012;47.562;18.414;2023-02-28T06:23:40;21.42;;;9.68;;
68192;SDS011;55012;47.562;18.414;2023-02-28T06:26:05;21.92;;;9.35;;
68192;SDS011;55012;47.562;18.414;2023-02-28T06:28:31;24.83;;;10.88;;
68192;SDS011;55012;47.562;18.414;2023-02-28T06:30:56;26.25;;;12.30;;
68192;SDS011;55012;47.562;18.414;2023-02-28T06:33:22;26.58;;;12.30;;
68192;SDS011;55012;47.562;18.414;2023-02-28T06:35:49;27.95;;;11.90;;
68192;SDS011;55012;47.562;18.414;2023-02-28T06:38:15;26.85;;;11.02;;
68192;SDS011;55012;47.562;18.414;2023-02-28T06:40:41;28.95;;;13.10;;
68192;SDS011;55012;47.562;18.414;2023-02-28T06:43:06;29.90;;;13.48;;
68192;SDS011;55012;47.562;18.414;2023-02-28T06:45:32;28.25;;;13.10;;
68192;SDS011;55012;47.562;18.414;2023-02-28T06:47:58;25.35;;;12.27;;
68192;SDS011;55012;47.562;18.414;2023-02-28T06:50:25;23.27;;;10.45;;
68192;SDS011;55012;47.562;18.414;2023-02-28T06:52:50;24.75;;;11.77;;
68192;SDS011;55012;47.562;18.414;2023-02-28T06:55:19;26.30;;;11.75;;
68192;SDS011;55012;47.562;18.414;2023-02-28T06:57:44;27.33;;;11.65;;
68192;SDS011;55012;47.562;18.414;2023-02-28T07:00:10;28.00;;;12.10;;
68192;SDS011;55012;47.562;18.414;2023-02-28T07:02:36;29.17;;;12.18;;
68192;SDS011;55012;47.562;18.414;2023-02-28T07:05:03;30.73;;;12.02;;
68192;SDS011;55012;47.562;18.414;2023-02-28T07:07:29;26.92;;;11.70;;
68192;SDS011;55012;47.562;18.414;2023-02-28T07:09:55;22.50;;;10.77;;
68192;SDS011;55012;47.562;18.414;2023-02-28T07:12:21;21.30;;;10.15;;
68192;SDS011;55012;47.562;18.414;2023-02-28T07:14:47;21.88;;;10.00;;
68192;SDS011;55012;47.562;18.414;2023-02-28T07:17:12;26.77;;;11.25;;
68192;SDS011;55012;47.562;18.414;2023-02-28T07:19:38;20.33;;;9.27;;
68192;SDS011;55012;47.562;18.414;2023-02-28T07:22:04;17.45;;;8.70;;
68192;SDS011;55012;47.562;18.414;2023-02-28T07:24:30;20.30;;;8.95;;
68192;SDS011;55012;47.562;18.414;2023-02-28T07:26:55;19.85;;;9.18;;
68192;SDS011;55012;47.562;18.414;2023-02-28T07:29:21;21.38;;;9.48;;
68192;SDS011;55012;47.562;18.414;2023-02-28T07:31:47;19.50;;;8.90;;
68192;SDS011;55012;47.562;18.414;2023-02-28T07:34:13;20.05;;;8.88;;
68192;SDS011;55012;47.562;18.414;2023-02-28T07:36:39;15.82;;;7.55;;
68192;SDS011;55012;47.562;18.414;2023-02-28T07:39:04;21.75;;;9.73;;
68192;SDS011;55012;47.562;18.414;2023-02-28T07:41:30;21.63;;;9.00;;
68192;SDS011;55012;47.562;18.414;2023-02-28T07:43:58;23.80;;;9.65;;
68192;SDS011;55012;47.562;18.414;2023-02-28T07:46:24;23.15;;;10.95;;
68192;SDS011;55012;47.562;18.414;2023-02-28T07:48:51;22.80;;;10.50;;
68192;SDS011;55012;47.562;18.414;2023-02-28T07:51:17;26.33;;;10.82;;
68192;SDS011;55012;47.562;18.414;2023-02-28T07:53:43;22.38;;;10.05;;
68192;SDS011;55012;47.562;18.414;2023-02-28T07:56:09;25.30;;;10.38;;
68192;SDS011;55012;47.562;18.414;2023-02-28T07:58:35;23.08;;;9.93;;
68192;SDS011;55012;47.562;18.414;2023-02-28T08:01:08;24.65;;;10.15;;
68192;SDS011;55012;47.562;18.414;2023-02-28T08:03:34;20.17;;;10.10;;
68192;SDS011;55012;47.562;18.414;2023-02-28T08:06:01;25.38;;;10.50;;
68192;SDS011;55012;47.562;18.414;2023-02-28T08:08:29;22.50;;;10.13;;
68192;SDS011;55012;47.562;18.414;2023-02-28T08:10:58;21.27;;;9.25;;
68192;SDS011;55012;47.562;18.414;2023-02-28T08:13:28;21.63;;;9.45;;
68192;SDS011;55012;47.562;18.414;2023-02-28T08:15:55;20.27;;;9.35;;
68192;SDS011;55012;47.562;18.414;2023-02-28T08:18:21;17.42;;;8.07;;
68192;SDS011;55012;47.562;18.414;2023-02-28T08:20:48;21.40;;;9.52;;
68192;SDS011;55012;47.562;18.414;2023-02-28T08:23:14;20.40;;;8.35;;
68192;SDS011;55012;47.562;18.414;2023-02-28T08:25:39;15.95;;;8.07;;
68192;SDS011;55012;47.562;18.414;2023-02-28T08:28:05;18.58;;;8.82;;
68192;SDS011;55012;47.562;18.414;2023-02-28T08:30:30;20.85;;;8.48;;
68192;SDS011;55012;47.562;18.414;2023-02-28T08:32:56;16.67;;;8.25;;
68192;SDS011;55012;47.562;18.414;2023-02-28T08:35:22;18.65;;;8.15;;
68192;SDS011;55012;47.562;18.414;2023-02-28T08:37:48;15.82;;;7.22;;
68192;SDS011;55012;47.562;18.414;2023-02-28T08:40:14;15.73;;;7.68;;
68192;SDS011;55012;47.562;18.414;2023-02-28T08:42:43;15.02;;;6.88;;
68192;SDS011;55012;47.562;18.414;2023-02-28T08:45:10;15.15;;;7.43;;
68192;SDS011;55012;47.562;18.414;2023-02-28T08:47:36;14.75;;;7.60;;
68192;SDS011;55012;47.562;18.414;2023-02-28T08:50:01;18.85;;;8.18;;
68192;SDS011;55012;47.562;18.414;2023-02-28T08:52:27;14.57;;;7.18;;
68192;SDS011;55012;47.562;18.414;2023-02-28T08:54:52;16.88;;;8.00;;
68192;SDS011;55012;47.562;18.414;2023-02-28T08:57:18;15.88;;;7.53;;
68192;SDS011;55012;47.562;18.414;2023-02-28T08:59:43;14.65;;;7.20;;
68192;SDS011;55012;47.562;18.414;2023-02-28T09:02:11;13.88;;;7.07;;
68192;SDS011;55012;47.562;18.414;2023-02-28T09:04:38;16.58;;;7.78;;
68192;SDS011;55012;47.562;18.414;2023-02-28T09:07:03;13.98;;;7.45;;
68192;SDS011;55012;47.562;18.414;2023-02-28T09:09:29;14.23;;;7.82;;
68192;SDS011;55012;47.562;18.414;2023-02-28T09:11:57;19.15;;;8.55;;
68192;SDS011;55012;47.562;18.414;2023-02-28T09:14:23;19.17;;;8.15;;
68192;SDS011;55012;47.562;18.414;2023-02-28T09:16:48;16.63;;;7.97;;
68192;SDS011;55012;47.562;18.414;2023-02-28T09:19:14;19.80;;;9.05;;
68192;SDS011;55012;47.562;18.414;2023-02-28T09:21:39;17.70;;;7.68;;
68192;SDS011;55012;47.562;18.414;2023-02-28T09:24:05;18.23;;;8.73;;
68192;SDS011;55012;47.562;18.414;2023-02-28T09:26:31;20.58;;;8.90;;
68192;SDS011;55012;47.562;18.414;2023-02-28T09:28:57;20.88;;;9.32;;
68192;SDS011;55012;47.562;18.414;2023-02-28T09:31:25;18.65;;;8.98;;
68192;SDS011;55012;47.562;18.414;2023-02-28T09:33:53;16.42;;;7.47;;
68192;SDS011;55012;47.562;18.414;2023-02-28T09:36:21;16.75;;;8.18;;
68192;SDS011;55012;47.562;18.414;2023-02-28T09:38:48;18.63;;;8.23;;
68192;SDS011;55012;47.562;18.414;2023-02-28T09:41:19;21.50;;;8.63;;
68192;SDS011;55012;47.562;18.414;2023-02-28T09:43:48;20.65;;;8.05;;
68192;SDS011;55012;47.562;18.414;2023-02-28T09:48:53;23.13;;;8.83;;
68192;SDS011;55012;47.562;18.414;2023-02-28T09:51:33;17.52;;;7.72;;
68192;SDS011;55012;47.562;18.414;2023-02-28T09:54:13;15.93;;;7.75;;
68192;SDS011;55012;47.562;18.414;2023-02-28T09:56:44;18.95;;;8.00;;
68192;SDS011;55012;47.562;18.414;2023-02-28T09:59:31;15.00;;;7.57;;
68192;SDS011;55012;47.562;18.414;2023-02-28T10:05:22;19.50;;;7.75;;
68192;SDS011;55012;47.562;18.414;2023-02-28T10:10:29;17.80;;;7.95;;
68192;SDS011;55012;47.562;18.414;2023-02-28T10:13:04;19.15;;;7.10;;
68192;SDS011;55012;47.562;18.414;2023-02-28T10:18:04;15.50;;;7.57;;
68192;SDS011;55012;47.562;18.414;2023-02-28T10:20:35;14.95;;;7.40;;
68192;SDS011;55012;47.562;18.414;2023-02-28T10:26:14;16.58;;;7.45;;
68192;SDS011;55012;47.562;18.414;2023-02-28T10:28:41;16.30;;;7.47;;
68192;SDS011;55012;47.562;18.414;2023-02-28T10:31:08;16.30;;;7.55;;
68192;SDS011;55012;47.562;18.414;2023-02-28T10:33:40;16.88;;;7.63;;
68192;SDS011;55012;47.562;18.414;2023-02-28T10:36:05;16.70;;;7.82;;
68192;SDS011;55012;47.562;18.414;2023-02-28T10:38:38;15.18;;;7.57;;
68192;SDS011;55012;47.562;18.414;2023-02-28T10:43:35;18.40;;;8.07;;
68192;SDS011;55012;47.562;18.414;2023-02-28T10:46:04;17.42;;;7.93;;
68192;SDS011;55012;47.562;18.414;2023-02-28T10:51:16;15.65;;;7.53;;
68192;SDS011;55012;47.562;18.414;2023-02-28T10:53:50;18.40;;;7.82;;
68192;SDS011;55012;47.562;18.414;2023-02-28T10:56:20;18.58;;;7.97;;
68192;SDS011;55012;47.562;18.414;2023-02-28T11:01:20;17.95;;;8.30;;
68192;SDS011;55012;47.562;18.414;2023-02-28T11:03:47;19.50;;;8.43;;
68192;SDS011;55012;47.562;18.414;2023-02-28T11:06:26;16.48;;;7.35;;
68192;SDS011;55012;47.562;18.414;2023-02-28T11:08:58;16.30;;;8.50;;
68192;SDS011;55012;47.562;18.414;2023-02-28T11:11:45;15.82;;;7.70;;
68192;SDS011;55012;47.562;18.414;2023-02-28T11:14:17;15.35;;;7.78;;
68192;SDS011;55012;47.562;18.414;2023-02-28T11:16:50;19.65;;;8.43;;
68192;SDS011;55012;47.562;18.414;2023-02-28T11:19:27;17.17;;;7.65;;
68192;SDS011;55012;47.562;18.414;2023-02-28T11:22:02;17.38;;;8.00;;
68192;SDS011;55012;47.562;18.414;2023-02-28T11:24:51;17.73;;;7.95;;
68192;SDS011;55012;47.562;18.414;2023-02-28T11:27:25;16.67;;;7.57;;
68192;SDS011;55012;47.562;18.414;2023-02-28T11:29:57;17.20;;;7.82;;
68192;SDS011;55012;47.562;18.414;2023-02-28T11:32:24;14.50;;;7.53;;
68192;SDS011;55012;47.562;18.414;2023-02-28T11:35:04;17.20;;;7.43;;
68192;SDS011;55012;47.562;18.414;2023-02-28T11:37:38;15.67;;;7.30;;
68192;SDS011;55012;47.562;18.414;2023-02-28T11:40:17;18.58;;;6.78;;
68192;SDS011;55012;47.562;18.414;2023-02-28T11:42:50;13.63;;;6.80;;
68192;SDS011;55012;47.562;18.414;2023-02-28T11:48:38;13.32;;;6.57;;
68192;SDS011;55012;47.562;18.414;2023-02-28T11:51:17;12.45;;;6.72;;
68192;SDS011;55012;47.562;18.414;2023-02-28T11:53:56;14.77;;;6.68;;
68192;SDS011;55012;47.562;18.414;2023-02-28T11:56:44;13.02;;;6.60;;
68192;SDS011;55012;47.562;18.414;2023-02-28T12:07:50;13.77;;;6.45;;
68192;SDS011;55012;47.562;18.414;2023-02-28T12:13:58;14.88;;;7.35;;
68192;SDS011;55012;47.562;18.414;2023-02-28T12:16:55;10.65;;;5.63;;
68192;SDS011;55012;47.562;18.414;2023-02-28T12:19:48;12.30;;;5.40;;
68192;SDS011;55012;47.562;18.414;2023-02-28T12:25:24;12.38;;;6.45;;
68192;SDS011;55012;47.562;18.414;2023-02-28T12:28:17;12.85;;;6.47;;
68192;SDS011;55012;47.562;18.414;2023-02-28T12:30:49;12.88;;;6.18;;
68192;SDS011;55012;47.562;18.414;2023-02-28T12:33:21;11.02;;;5.63;;
68192;SDS011;55012;47.562;18.414;2023-02-28T12:35:51;12.38;;;5.85;;
68192;SDS011;55012;47.562;18.414;2023-02-28T12:38:33;11.02;;;5.97;;
68192;SDS011;55012;47.562;18.414;2023-02-28T12:41:20;17.08;;;6.70;;
68192;SDS011;55012;47.562;18.414;2023-02-28T12:43:55;12.27;;;6.07;;
68192;SDS011;55012;47.562;18.414;2023-02-28T12:46:32;12.20;;;6.00;;
68192;SDS011;55012;47.562;18.414;2023-02-28T12:49:02;11.02;;;5.93;;
68192;SDS011;55012;47.562;18.414;2023-02-28T12:51:33;11.70;;;5.53;;
68192;SDS011;55012;47.562;18.414;2023-02-28T13:10:06;10.48;;;5.80;;
68192;SDS011;55012;47.562;18.414;2023-02-28T13:12:33;12.75;;;6.28;;
68192;SDS011;55012;47.562;18.414;2023-02-28T13:15:05;12.60;;;6.30;;
68192;SDS011;55012;47.562;18.414;2023-02-28T13:17:37;12.85;;;6.10;;
68192;SDS011;55012;47.562;18.414;2023-02-28T13:20:14;12.32;;;6.20;;
68192;SDS011;55012;47.562;18.414;2023-02-28T13:22:42;11.82;;;5.78;;
68192;SDS011;55012;47.562;18.414;2023-02-28T13:27:51;12.95;;;6.03;;
68192;SDS011;55012;47.562;18.414;2023-02-28T13:36:08;11.68;;;6.10;;
68192;SDS011;55012;47.562;18.414;2023-02-28T13:38:37;17.73;;;6.20;;
68192;SDS011;55012;47.562;18.414;2023-02-28T13:46:28;14.43;;;6.80;;
68192;SDS011;55012;47.562;18.414;2023-02-28T13:48:54;24.30;;;7.13;;
68192;SDS011;55012;47.562;18.414;2023-02-28T13:51:52;19.80;;;6.70;;
68192;SDS011;55012;47.562;18.414;2023-02-28T14:00:07;21.13;;;6.55;;
68192;SDS011;55012;47.562;18.414;2023-02-28T14:11:44;15.63;;;5.70;;
68192;SDS011;55012;47.562;18.414;2023-02-28T14:17:14;30.85;;;7.88;;
68192;SDS011;55012;47.562;18.414;2023-02-28T14:19:44;60.88;;;15.05;;
68192;SDS011;55012;47.562;18.414;2023-02-28T14:28:03;12.43;;;6.10;;
68192;SDS011;55012;47.562;18.414;2023-02-28T14:36:37;15.10;;;6.90;;
68192;SDS011;55012;47.562;18.414;2023-02-28T14:39:16;12.63;;;5.70;;
68192;SDS011;55012;47.562;18.414;2023-02-28T14:41:45;12.07;;;6.45;;
68192;SDS011;55012;47.562;18.414;2023-02-28T14:44:15;15.43;;;7.68;;
68192;SDS011;55012;47.562;18.414;2023-02-28T14:46:59;16.77;;;8.20;;
68192;SDS011;55012;47.562;18.414;2023-02-28T14:49:32;11.43;;;5.78;;
68192;SDS011;55012;47.562;18.414;2023-02-28T14:52:02;11.75;;;6.22;;
68192;SDS011;55012;47.562;18.414;2023-02-28T14:54:31;13.00;;;6.50;;
68192;SDS011;55012;47.562;18.414;2023-02-28T14:56:57;12.98;;;6.80;;
68192;SDS011;55012;47.562;18.414;2023-02-28T14:59:30;13.90;;;7.10;;
68192;SDS011;55012;47.562;18.414;2023-02-28T15:05:01;12.43;;;6.20;;
68192;SDS011;55012;47.562;18.414;2023-02-28T15:07:47;10.60;;;5.40;;
68192;SDS011;55012;47.562;18.414;2023-02-28T15:10:24;12.60;;;6.35;;
68192;SDS011;55012;47.562;18.414;2023-02-28T15:15:16;9.98;;;5.90;;
68192;SDS011;55012;47.562;18.414;2023-02-28T15:17:46;11.50;;;6.55;;
68192;SDS011;55012;47.562;18.414;2023-02-28T15:20:16;10.05;;;5.90;;
68192;SDS011;55012;47.562;18.414;2023-02-28T15:22:44;12.68;;;7.40;;
68192;SDS011;55012;47.562;18.414;2023-02-28T15:25:13;9.50;;;5.68;;
68192;SDS011;55012;47.562;18.414;2023-02-28T15:27:44;11.65;;;6.53;;
68192;SDS011;55012;47.562;18.414;2023-02-28T15:30:19;10.50;;;6.35;;
68192;SDS011;55012;47.562;18.414;2023-02-28T15:35:46;11.30;;;7.22;;
68192;SDS011;55012;47.562;18.414;2023-02-28T15:38:23;12.07;;;6.53;;
68192;SDS011;55012;47.562;18.414;2023-02-28T15:40:55;11.77;;;7.10;;
68192;SDS011;55012;47.562;18.414;2023-02-28T15:43:25;13.13;;;8.57;;
68192;SDS011;55012;47.562;18.414;2023-02-28T15:48:36;13.23;;;8.23;;
68192;SDS011;55012;47.562;18.414;2023-02-28T15:56:33;12.63;;;7.80;;
68192;SDS011;55012;47.562;18.414;2023-02-28T15:59:04;12.73;;;8.10;;
68192;SDS011;55012;47.562;18.414;2023-02-28T16:01:33;14.20;;;8.40;;
68192;SDS011;55012;47.562;18.414;2023-02-28T16:04:03;13.80;;;6.93;;
68192;SDS011;55012;47.562;18.414;2023-02-28T16:06:33;15.98;;;8.50;;
68192;SDS011;55012;47.562;18.414;2023-02-28T16:09:13;16.58;;;8.02;;
68192;SDS011;55012;47.562;18.414;2023-02-28T16:11:41;15.68;;;8.48;;
68192;SDS011;55012;47.562;18.414;2023-02-28T16:14:16;16.33;;;8.35;;
68192;SDS011;55012;47.562;18.414;2023-02-28T16:16:44;17.77;;;9.15;;
68192;SDS011;55012;47.562;18.414;2023-02-28T16:19:11;13.82;;;8.05;;
68192;SDS011;55012;47.562;18.414;2023-02-28T16:21:37;17.15;;;8.73;;
68192;SDS011;55012;47.562;18.414;2023-02-28T16:24:03;14.95;;;8.30;;
68192;SDS011;55012;47.562;18.414;2023-02-28T16:26:28;19.92;;;10.00;;
68192;SDS011;55012;47.562;18.414;2023-02-28T16:28:59;22.48;;;11.90;;
68192;SDS011;55012;47.562;18.414;2023-02-28T16:31:28;26.38;;;12.75;;
68192;SDS011;55012;47.562;18.414;2023-02-28T16:33:54;41.78;;;18.25;;
68192;SDS011;55012;47.562;18.414;2023-02-28T16:36:21;36.80;;;17.30;;
68192;SDS011;55012;47.562;18.414;2023-02-28T16:38:49;30.38;;;15.68;;
68192;SDS011;55012;47.562;18.414;2023-02-28T16:41:16;32.50;;;15.73;;
68192;SDS011;55012;47.562;18.414;2023-02-28T16:43:47;18.80;;;9.48;;
68192;SDS011;55012;47.562;18.414;2023-02-28T16:46:15;16.48;;;8.65;;
68192;SDS011;55012;47.562;18.414;2023-02-28T16:48:42;14.80;;;7.18;;
68192;SDS011;55012;47.562;18.414;2023-02-28T16:51:11;11.77;;;6.38;;
68192;SDS011;55012;47.562;18.414;2023-02-28T16:53:37;20.45;;;9.45;;
68192;SDS011;55012;47.562;18.414;2023-02-28T16:56:03;18.50;;;9.20;;
68192;SDS011;55012;47.562;18.414;2023-02-28T16:58:30;15.80;;;7.07;;
68192;SDS011;55012;47.562;18.414;2023-02-28T17:00:55;15.18;;;7.05;;
68192;SDS011;55012;47.562;18.414;2023-02-28T17:03:25;14.77;;;6.72;;
68192;SDS011;55012;47.562;18.414;2023-02-28T17:05:52;14.10;;;6.45;;
68192;SDS011;55012;47.562;18.414;2023-02-28T17:08:18;13.23;;;6.43;;
68192;SDS011;55012;47.562;18.414;2023-02-28T17:10:43;13.98;;;6.90;;
68192;SDS011;55012;47.562;18.414;2023-02-28T17:13:09;21.33;;;7.40;;
68192;SDS011;55012;47.562;18.414;2023-02-28T17:15:35;19.42;;;7.95;;